Aviation Digital Data Service (ADDS)

Output produced by METARs form (0045 UTC 06 December 2016)
found at http://www.aviationweather.gov/adds/metars/
 
KATL 052330Z 0600/0706 09012KT 3SM -RADZ BR OVC004 
     TEMPO 0600/0603 1SM RA BR OVC002 
     FM060800 08012KT 3SM RA BR OVC004 
     PROB30 0609/0614 2SM TSRA BKN004CB 
     FM061400 15008KT 3SM -RA BKN006 
     FM061700 25012G20KT 5SM -SHRA SCT004 BKN015 
     FM062300 31012KT P6SM BKN020